sensor_id;sensor_type;location;lat;lon;timestamp;temperature;humidity
4725;DHT22;2376;53.544;10.226;2023-02-21T00:01:42;12.00;99.90
4725;DHT22;2376;53.544;10.226;2023-02-21T00:04:26;12.00;99.90
4725;DHT22;2376;53.544;10.226;2023-02-21T00:07:11;11.90;99.90
4725;DHT22;2376;53.544;10.226;2023-02-21T00:09:55;11.90;99.90
4725;DHT22;2376;53.544;10.226;2023-02-21T00:12:39;12.00;99.90
4725;DHT22;2376;53.544;10.226;2023-02-21T00:15:23;11.90;99.90
4725;DHT22;2376;53.544;10.226;2023-02-21T00:18:09;12.00;99.90
4725;DHT22;2376;53.544;10.226;2023-02-21T00:20:53;12.00;99.90
4725;DHT22;2376;53.544;10.226;2023-02-21T00:23:37;12.00;99.90
4725;DHT22;2376;53.544;10.226;2023-02-21T00:26:22;12.00;99.90
4725;DHT22;2376;53.544;10.226;2023-02-21T00:29:07;11.90;99.90
4725;DHT22;2376;53.544;10.226;2023-02-21T00:31:51;12.00;99.90
4725;DHT22;2376;53.544;10.226;2023-02-21T00:34:37;11.80;99.90
4725;DHT22;2376;53.544;10.226;2023-02-21T00:37:21;11.90;99.90
4725;DHT22;2376;53.544;10.226;2023-02-21T00:40:06;12.00;99.90
4725;DHT22;2376;53.544;10.226;2023-02-21T00:42:51;12.10;99.90
4725;DHT22;2376;53.544;10.226;2023-02-21T00:45:35;12.00;99.90
4725;DHT22;2376;53.544;10.226;2023-02-21T00:48:19;11.90;99.90
4725;DHT22;2376;53.544;10.226;2023-02-21T00:51:05;11.90;99.90
4725;DHT22;2376;53.544;10.226;2023-02-21T00:53:49;11.90;99.90
4725;DHT22;2376;53.544;10.226;2023-02-21T00:56:34;11.90;99.90
4725;DHT22;2376;53.544;10.226;2023-02-21T00:59:18;11.90;99.90
4725;DHT22;2376;53.544;10.226;2023-02-21T01:02:02;12.00;99.90
4725;DHT22;2376;53.544;10.226;2023-02-21T01:04:47;12.00;99.90
4725;DHT22;2376;53.544;10.226;2023-02-21T01:07:33;11.90;99.90
4725;DHT22;2376;53.544;10.226;2023-02-21T01:10:18;11.90;99.90
4725;DHT22;2376;53.544;10.226;2023-02-21T01:13:03;11.90;99.90
4725;DHT22;2376;53.544;10.226;2023-02-21T01:15:48;12.00;99.90
4725;DHT22;2376;53.544;10.226;2023-02-21T01:18:33;11.90;99.90
4725;DHT22;2376;53.544;10.226;2023-02-21T01:21:18;12.00;99.90
4725;DHT22;2376;53.544;10.226;2023-02-21T01:24:05;11.90;99.90
4725;DHT22;2376;53.544;10.226;2023-02-21T01:26:50;11.80;99.90
4725;DHT22;2376;53.544;10.226;2023-02-21T01:29:34;11.90;99.90
4725;DHT22;2376;53.544;10.226;2023-02-21T01:32:19;12.00;99.90
4725;DHT22;2376;53.544;10.226;2023-02-21T01:35:04;12.00;99.90
4725;DHT22;2376;53.544;10.226;2023-02-21T01:37:49;12.00;99.90
4725;DHT22;2376;53.544;10.226;2023-02-21T01:40:36;12.00;99.90
4725;DHT22;2376;53.544;10.226;2023-02-21T01:43:22;12.10;99.90
4725;DHT22;2376;53.544;10.226;2023-02-21T01:46:10;12.00;99.90
4725;DHT22;2376;53.544;10.226;2023-02-21T01:48:56;12.00;99.90
4725;DHT22;2376;53.544;10.226;2023-02-21T01:51:41;12.00;99.90
4725;DHT22;2376;53.544;10.226;2023-02-21T01:54:30;12.00;99.90
4725;DHT22;2376;53.544;10.226;2023-02-21T01:57:17;12.00;99.90
4725;DHT22;2376;53.544;10.226;2023-02-21T02:00:06;12.00;99.90
4725;DHT22;2376;53.544;10.226;2023-02-21T02:02:55;11.90;99.90
4725;DHT22;2376;53.544;10.226;2023-02-21T02:05:42;11.80;99.90
4725;DHT22;2376;53.544;10.226;2023-02-21T02:08:28;11.90;99.90
4725;DHT22;2376;53.544;10.226;2023-02-21T02:11:25;11.80;99.90
4725;DHT22;2376;53.544;10.226;2023-02-21T02:14:30;11.80;99.90
4725;DHT22;2376;53.544;10.226;2023-02-21T02:17:07;11.80;99.90
4725;DHT22;2376;53.544;10.226;2023-02-21T02:20:01;11.70;99.90
4725;DHT22;2376;53.544;10.226;2023-02-21T02:22:53;11.70;99.90
4725;DHT22;2376;53.544;10.226;2023-02-21T02:25:42;11.70;99.90
4725;DHT22;2376;53.544;10.226;2023-02-21T02:28:28;11.70;99.90
4725;DHT22;2376;53.544;10.226;2023-02-21T02:31:20;11.80;99.90
4725;DHT22;2376;53.544;10.226;2023-02-21T02:34:31;11.80;99.90
4725;DHT22;2376;53.544;10.226;2023-02-21T02:37:09;11.80;99.90
4725;DHT22;2376;53.544;10.226;2023-02-21T02:39:41;11.90;99.90
4725;DHT22;2376;53.544;10.226;2023-02-21T02:42:19;11.80;99.90
4725;DHT22;2376;53.544;10.226;2023-02-21T02:44:52;11.80;99.90
4725;DHT22;2376;53.544;10.226;2023-02-21T02:47:24;11.80;99.90
4725;DHT22;2376;53.544;10.226;2023-02-21T02:49:56;11.70;99.90
4725;DHT22;2376;53.544;10.226;2023-02-21T02:52:23;11.70;99.90
4725;DHT22;2376;53.544;10.226;2023-02-21T02:54:57;11.70;99.90
4725;DHT22;2376;53.544;10.226;2023-02-21T02:57:25;11.80;99.90
4725;DHT22;2376;53.544;10.226;2023-02-21T02:59:55;11.90;99.90
4725;DHT22;2376;53.544;10.226;2023-02-21T03:02:36;11.90;99.90
4725;DHT22;2376;53.544;10.226;2023-02-21T03:05:19;11.80;99.90
4725;DHT22;2376;53.544;10.226;2023-02-21T03:07:57;11.80;99.90
4725;DHT22;2376;53.544;10.226;2023-02-21T03:10:36;11.80;99.90
4725;DHT22;2376;53.544;10.226;2023-02-21T03:13:11;11.80;99.90
4725;DHT22;2376;53.544;10.226;2023-02-21T03:15:43;11.90;99.90
4725;DHT22;2376;53.544;10.226;2023-02-21T03:18:15;12.00;99.90
4725;DHT22;2376;53.544;10.226;2023-02-21T03:20:47;12.00;99.90
4725;DHT22;2376;53.544;10.226;2023-02-21T03:23:17;12.00;99.90
4725;DHT22;2376;53.544;10.226;2023-02-21T03:25:46;11.80;99.90
4725;DHT22;2376;53.544;10.226;2023-02-21T03:28:14;11.80;99.90
4725;DHT22;2376;53.544;10.226;2023-02-21T03:30:43;11.70;99.90
4725;DHT22;2376;53.544;10.226;2023-02-21T03:33:11;11.80;99.90
4725;DHT22;2376;53.544;10.226;2023-02-21T03:35:38;11.90;99.90
4725;DHT22;2376;53.544;10.226;2023-02-21T03:38:06;11.80;99.90
4725;DHT22;2376;53.544;10.226;2023-02-21T03:40:33;11.80;99.90
4725;DHT22;2376;53.544;10.226;2023-02-21T03:43:02;11.80;99.90
4725;DHT22;2376;53.544;10.226;2023-02-21T03:45:32;11.80;99.90
4725;DHT22;2376;53.544;10.226;2023-02-21T03:47:59;11.90;99.90
4725;DHT22;2376;53.544;10.226;2023-02-21T03:50:25;11.90;99.90
4725;DHT22;2376;53.544;10.226;2023-02-21T03:52:53;11.90;99.90
4725;DHT22;2376;53.544;10.226;2023-02-21T03:55:21;11.80;99.90
4725;DHT22;2376;53.544;10.226;2023-02-21T03:57:48;11.70;99.90
4725;DHT22;2376;53.544;10.226;2023-02-21T04:00:15;11.80;99.90
4725;DHT22;2376;53.544;10.226;2023-02-21T04:02:43;11.70;99.90
4725;DHT22;2376;53.544;10.226;2023-02-21T04:05:10;11.70;99.90
4725;DHT22;2376;53.544;10.226;2023-02-21T04:07:38;11.70;99.90
4725;DHT22;2376;53.544;10.226;2023-02-21T04:10:05;11.80;99.90
4725;DHT22;2376;53.544;10.226;2023-02-21T04:12:33;11.70;99.90
4725;DHT22;2376;53.544;10.226;2023-02-21T04:15:00;11.50;99.90
4725;DHT22;2376;53.544;10.226;2023-02-21T04:17:27;11.60;99.90
4725;DHT22;2376;53.544;10.226;2023-02-21T04:19:54;11.50;99.90
4725;DHT22;2376;53.544;10.226;2023-02-21T04:22:21;11.50;99.90
4725;DHT22;2376;53.544;10.226;2023-02-21T04:24:47;11.60;99.90
4725;DHT22;2376;53.544;10.226;2023-02-21T04:27:14;11.70;99.90
4725;DHT22;2376;53.544;10.226;2023-02-21T04:29:43;11.70;99.90
4725;DHT22;2376;53.544;10.226;2023-02-21T04:32:10;11.70;99.90
4725;DHT22;2376;53.544;10.226;2023-02-21T04:34:37;11.80;99.90
4725;DHT22;2376;53.544;10.226;2023-02-21T04:37:04;11.80;99.90
4725;DHT22;2376;53.544;10.226;2023-02-21T04:39:31;11.70;99.90
4725;DHT22;2376;53.544;10.226;2023-02-21T04:41:58;11.80;99.90
4725;DHT22;2376;53.544;10.226;2023-02-21T04:44:24;11.80;99.90
4725;DHT22;2376;53.544;10.226;2023-02-21T04:46:53;11.80;99.90
4725;DHT22;2376;53.544;10.226;2023-02-21T04:49:20;11.70;99.90
4725;DHT22;2376;53.544;10.226;2023-02-21T04:51:49;11.70;99.90
4725;DHT22;2376;53.544;10.226;2023-02-21T04:54:16;11.70;99.90
4725;DHT22;2376;53.544;10.226;2023-02-21T04:56:43;11.70;99.90
4725;DHT22;2376;53.544;10.226;2023-02-21T04:59:10;11.70;99.90
4725;DHT22;2376;53.544;10.226;2023-02-21T05:01:37;11.70;99.90
4725;DHT22;2376;53.544;10.226;2023-02-21T05:04:05;11.60;99.90
4725;DHT22;2376;53.544;10.226;2023-02-21T05:06:32;11.60;99.90
4725;DHT22;2376;53.544;10.226;2023-02-21T05:08:59;11.60;99.90
4725;DHT22;2376;53.544;10.226;2023-02-21T05:11:27;11.60;99.90
4725;DHT22;2376;53.544;10.226;2023-02-21T05:13:54;11.50;99.90
4725;DHT22;2376;53.544;10.226;2023-02-21T05:16:20;11.50;99.90
4725;DHT22;2376;53.544;10.226;2023-02-21T05:18:48;11.50;99.90
4725;DHT22;2376;53.544;10.226;2023-02-21T05:21:18;11.50;99.90
4725;DHT22;2376;53.544;10.226;2023-02-21T05:23:45;11.40;99.90
4725;DHT22;2376;53.544;10.226;2023-02-21T05:26:23;11.30;99.90
4725;DHT22;2376;53.544;10.226;2023-02-21T05:28:50;11.30;99.90
4725;DHT22;2376;53.544;10.226;2023-02-21T05:31:18;11.30;99.90
4725;DHT22;2376;53.544;10.226;2023-02-21T05:33:46;11.20;99.90
4725;DHT22;2376;53.544;10.226;2023-02-21T05:36:13;11.00;99.90
4725;DHT22;2376;53.544;10.226;2023-02-21T05:38:52;11.00;99.90
4725;DHT22;2376;53.544;10.226;2023-02-21T05:41:19;11.10;99.90
4725;DHT22;2376;53.544;10.226;2023-02-21T05:43:47;11.20;99.90
4725;DHT22;2376;53.544;10.226;2023-02-21T05:46:19;11.20;99.90
4725;DHT22;2376;53.544;10.226;2023-02-21T05:48:49;11.20;99.90
4725;DHT22;2376;53.544;10.226;2023-02-21T05:51:16;11.10;99.90
4725;DHT22;2376;53.544;10.226;2023-02-21T05:53:43;11.10;99.90
4725;DHT22;2376;53.544;10.226;2023-02-21T05:56:12;11.00;99.90
4725;DHT22;2376;53.544;10.226;2023-02-21T05:58:39;11.10;99.90
4725;DHT22;2376;53.544;10.226;2023-02-21T06:01:06;11.00;99.90
4725;DHT22;2376;53.544;10.226;2023-02-21T06:03:33;11.00;99.90
4725;DHT22;2376;53.544;10.226;2023-02-21T06:06:00;11.00;99.90
4725;DHT22;2376;53.544;10.226;2023-02-21T06:08:27;11.00;99.90
4725;DHT22;2376;53.544;10.226;2023-02-21T06:10:54;11.00;99.90
4725;DHT22;2376;53.544;10.226;2023-02-21T06:13:22;10.90;99.90
4725;DHT22;2376;53.544;10.226;2023-02-21T06:15:49;11.00;99.90
4725;DHT22;2376;53.544;10.226;2023-02-21T06:18:16;11.00;99.90
4725;DHT22;2376;53.544;10.226;2023-02-21T06:20:43;11.10;99.90
4725;DHT22;2376;53.544;10.226;2023-02-21T06:23:10;11.10;99.90
4725;DHT22;2376;53.544;10.226;2023-02-21T06:25:37;11.10;99.90
4725;DHT22;2376;53.544;10.226;2023-02-21T06:28:04;11.10;99.90
4725;DHT22;2376;53.544;10.226;2023-02-21T06:30:32;10.90;99.90
4725;DHT22;2376;53.544;10.226;2023-02-21T06:32:59;10.80;99.90
4725;DHT22;2376;53.544;10.226;2023-02-21T06:35:25;10.80;99.90
4725;DHT22;2376;53.544;10.226;2023-02-21T06:37:52;10.80;99.90
4725;DHT22;2376;53.544;10.226;2023-02-21T06:40:19;10.80;99.90
4725;DHT22;2376;53.544;10.226;2023-02-21T06:42:46;10.80;99.90
4725;DHT22;2376;53.544;10.226;2023-02-21T06:45:13;10.80;99.90
4725;DHT22;2376;53.544;10.226;2023-02-21T06:47:41;10.90;99.90
4725;DHT22;2376;53.544;10.226;2023-02-21T06:50:08;10.90;99.90
4725;DHT22;2376;53.544;10.226;2023-02-21T06:52:35;10.90;99.90
4725;DHT22;2376;53.544;10.226;2023-02-21T06:55:02;10.90;99.90
4725;DHT22;2376;53.544;10.226;2023-02-21T06:57:28;10.90;99.90
4725;DHT22;2376;53.544;10.226;2023-02-21T06:59:56;10.90;99.90
4725;DHT22;2376;53.544;10.226;2023-02-21T07:02:23;10.90;99.90
4725;DHT22;2376;53.544;10.226;2023-02-21T07:04:51;10.90;99.90
4725;DHT22;2376;53.544;10.226;2023-02-21T07:07:18;10.80;99.90
4725;DHT22;2376;53.544;10.226;2023-02-21T07:09:45;10.90;99.90
4725;DHT22;2376;53.544;10.226;2023-02-21T07:12:12;10.90;99.90
4725;DHT22;2376;53.544;10.226;2023-02-21T07:14:38;11.00;99.90
4725;DHT22;2376;53.544;10.226;2023-02-21T07:17:05;11.00;99.90
4725;DHT22;2376;53.544;10.226;2023-02-21T07:19:32;11.00;99.90
4725;DHT22;2376;53.544;10.226;2023-02-21T07:22:00;10.90;99.90
4725;DHT22;2376;53.544;10.226;2023-02-21T07:24:27;10.90;99.90
4725;DHT22;2376;53.544;10.226;2023-02-21T07:26:54;10.90;99.90
4725;DHT22;2376;53.544;10.226;2023-02-21T07:29:21;10.90;99.90
4725;DHT22;2376;53.544;10.226;2023-02-21T07:31:48;10.90;99.90
4725;DHT22;2376;53.544;10.226;2023-02-21T07:34:15;10.90;99.90
4725;DHT22;2376;53.544;10.226;2023-02-21T07:36:42;10.90;99.90
4725;DHT22;2376;53.544;10.226;2023-02-21T07:39:10;10.90;99.90
4725;DHT22;2376;53.544;10.226;2023-02-21T07:41:37;10.80;99.90
4725;DHT22;2376;53.544;10.226;2023-02-21T07:44:04;10.70;99.90
4725;DHT22;2376;53.544;10.226;2023-02-21T07:46:32;10.70;99.90
4725;DHT22;2376;53.544;10.226;2023-02-21T07:48:59;10.70;99.90
4725;DHT22;2376;53.544;10.226;2023-02-21T07:51:27;10.70;99.90
4725;DHT22;2376;53.544;10.226;2023-02-21T07:53:54;10.70;99.90
4725;DHT22;2376;53.544;10.226;2023-02-21T07:56:23;10.70;99.90
4725;DHT22;2376;53.544;10.226;2023-02-21T07:58:49;10.50;99.90
4725;DHT22;2376;53.544;10.226;2023-02-21T08:01:16;10.50;99.90
4725;DHT22;2376;53.544;10.226;2023-02-21T08:03:43;10.50;99.90
4725;DHT22;2376;53.544;10.226;2023-02-21T08:06:10;10.60;99.90
4725;DHT22;2376;53.544;10.226;2023-02-21T08:08:37;10.60;99.90
4725;DHT22;2376;53.544;10.226;2023-02-21T08:11:04;10.60;99.90
4725;DHT22;2376;53.544;10.226;2023-02-21T08:13:32;10.60;99.90
4725;DHT22;2376;53.544;10.226;2023-02-21T08:15:59;10.70;99.90
4725;DHT22;2376;53.544;10.226;2023-02-21T08:18:26;10.60;99.90
4725;DHT22;2376;53.544;10.226;2023-02-21T08:20:54;10.70;99.90
4725;DHT22;2376;53.544;10.226;2023-02-21T08:23:21;10.80;99.90
4725;DHT22;2376;53.544;10.226;2023-02-21T08:25:48;10.80;99.90
4725;DHT22;2376;53.544;10.226;2023-02-21T08:28:16;10.80;99.90
4725;DHT22;2376;53.544;10.226;2023-02-21T08:30:44;10.80;99.90
4725;DHT22;2376;53.544;10.226;2023-02-21T08:33:11;10.90;99.90
4725;DHT22;2376;53.544;10.226;2023-02-21T08:35:38;10.90;99.90
4725;DHT22;2376;53.544;10.226;2023-02-21T08:38:05;11.00;99.90
4725;DHT22;2376;53.544;10.226;2023-02-21T08:40:33;11.10;99.90
4725;DHT22;2376;53.544;10.226;2023-02-21T08:43:00;11.20;99.90
4725;DHT22;2376;53.544;10.226;2023-02-21T08:45:27;11.20;99.90
4725;DHT22;2376;53.544;10.226;2023-02-21T08:47:57;11.30;99.90
4725;DHT22;2376;53.544;10.226;2023-02-21T08:50:26;11.30;99.90
4725;DHT22;2376;53.544;10.226;2023-02-21T08:52:53;11.30;99.90
4725;DHT22;2376;53.544;10.226;2023-02-21T08:55:20;11.40;99.90
4725;DHT22;2376;53.544;10.226;2023-02-21T08:57:48;11.40;99.90
4725;DHT22;2376;53.544;10.226;2023-02-21T09:00:16;11.40;99.90
4725;DHT22;2376;53.544;10.226;2023-02-21T09:02:43;11.50;99.90
4725;DHT22;2376;53.544;10.226;2023-02-21T09:05:14;11.60;99.90
4725;DHT22;2376;53.544;10.226;2023-02-21T09:07:41;11.60;99.90
4725;DHT22;2376;53.544;10.226;2023-02-21T09:10:09;11.60;99.90
4725;DHT22;2376;53.544;10.226;2023-02-21T09:12:36;11.50;99.90
4725;DHT22;2376;53.544;10.226;2023-02-21T09:15:05;11.60;99.90
4725;DHT22;2376;53.544;10.226;2023-02-21T09:17:32;11.60;99.90
4725;DHT22;2376;53.544;10.226;2023-02-21T09:19:59;11.60;99.90
4725;DHT22;2376;53.544;10.226;2023-02-21T09:22:28;11.50;99.90
4725;DHT22;2376;53.544;10.226;2023-02-21T09:24:56;11.50;99.90
4725;DHT22;2376;53.544;10.226;2023-02-21T09:27:23;11.50;99.90
4725;DHT22;2376;53.544;10.226;2023-02-21T09:30:02;11.60;99.90
4725;DHT22;2376;53.544;10.226;2023-02-21T09:32:29;11.70;99.90
4725;DHT22;2376;53.544;10.226;2023-02-21T09:34:56;11.70;99.90
4725;DHT22;2376;53.544;10.226;2023-02-21T09:37:23;11.70;99.90
4725;DHT22;2376;53.544;10.226;2023-02-21T09:39:51;11.70;99.90
4725;DHT22;2376;53.544;10.226;2023-02-21T09:42:21;11.90;99.90
4725;DHT22;2376;53.544;10.226;2023-02-21T09:44:50;11.90;99.90
4725;DHT22;2376;53.544;10.226;2023-02-21T09:47:21;11.90;99.90
4725;DHT22;2376;53.544;10.226;2023-02-21T09:49:55;12.00;99.90
4725;DHT22;2376;53.544;10.226;2023-02-21T09:52:29;12.00;99.90
4725;DHT22;2376;53.544;10.226;2023-02-21T09:55:01;11.80;99.90
4725;DHT22;2376;53.544;10.226;2023-02-21T09:57:28;11.90;99.90
4725;DHT22;2376;53.544;10.226;2023-02-21T09:59:55;12.10;99.90
4725;DHT22;2376;53.544;10.226;2023-02-21T10:02:32;12.20;99.90
4725;DHT22;2376;53.544;10.226;2023-02-21T10:05:07;12.30;99.90
4725;DHT22;2376;53.544;10.226;2023-02-21T10:07:42;12.30;99.90
4725;DHT22;2376;53.544;10.226;2023-02-21T10:10:16;12.30;99.90
4725;DHT22;2376;53.544;10.226;2023-02-21T10:12:49;12.30;99.90
4725;DHT22;2376;53.544;10.226;2023-02-21T10:15:38;12.30;99.90
4725;DHT22;2376;53.544;10.226;2023-02-21T10:18:13;12.40;99.90
4725;DHT22;2376;53.544;10.226;2023-02-21T10:20:46;12.40;99.90
4725;DHT22;2376;53.544;10.226;2023-02-21T10:23:15;12.30;99.90
4725;DHT22;2376;53.544;10.226;2023-02-21T10:25:45;12.30;99.90
4725;DHT22;2376;53.544;10.226;2023-02-21T10:28:20;12.20;99.90
4725;DHT22;2376;53.544;10.226;2023-02-21T10:30:47;12.30;99.90
4725;DHT22;2376;53.544;10.226;2023-02-21T10:33:15;12.40;99.90
4725;DHT22;2376;53.544;10.226;2023-02-21T10:35:42;12.50;99.90
4725;DHT22;2376;53.544;10.226;2023-02-21T10:38:11;12.40;99.90
4725;DHT22;2376;53.544;10.226;2023-02-21T10:40:43;12.50;99.90
4725;DHT22;2376;53.544;10.226;2023-02-21T10:43:14;12.50;99.90
4725;DHT22;2376;53.544;10.226;2023-02-21T10:45:48;12.70;99.90
4725;DHT22;2376;53.544;10.226;2023-02-21T10:48:19;12.90;99.90
4725;DHT22;2376;53.544;10.226;2023-02-21T10:50:51;13.00;99.90
4725;DHT22;2376;53.544;10.226;2023-02-21T10:53:31;13.00;99.90
4725;DHT22;2376;53.544;10.226;2023-02-21T10:58:56;12.70;99.90
4725;DHT22;2376;53.544;10.226;2023-02-21T11:01:42;12.80;99.90
4725;DHT22;2376;53.544;10.226;2023-02-21T11:04:27;12.90;99.90
4725;DHT22;2376;53.544;10.226;2023-02-21T11:06:57;12.90;99.90
4725;DHT22;2376;53.544;10.226;2023-02-21T11:09:35;13.00;99.90
4725;DHT22;2376;53.544;10.226;2023-02-21T11:12:15;13.00;99.90
4725;DHT22;2376;53.544;10.226;2023-02-21T11:14:44;13.20;99.90
4725;DHT22;2376;53.544;10.226;2023-02-21T11:17:14;13.30;99.90
4725;DHT22;2376;53.544;10.226;2023-02-21T11:19:43;13.30;99.90
4725;DHT22;2376;53.544;10.226;2023-02-21T11:22:10;13.30;99.90
4725;DHT22;2376;53.544;10.226;2023-02-21T11:24:46;13.30;99.90
4725;DHT22;2376;53.544;10.226;2023-02-21T11:27:16;13.30;99.90
4725;DHT22;2376;53.544;10.226;2023-02-21T11:29:46;13.40;99.90
4725;DHT22;2376;53.544;10.226;2023-02-21T11:32:24;13.50;99.90
4725;DHT22;2376;53.544;10.226;2023-02-21T11:35:03;13.40;99.90
4725;DHT22;2376;53.544;10.226;2023-02-21T11:37:31;13.40;99.90
4725;DHT22;2376;53.544;10.226;2023-02-21T11:39:58;13.60;99.90
4725;DHT22;2376;53.544;10.226;2023-02-21T11:42:30;13.30;99.90
4725;DHT22;2376;53.544;10.226;2023-02-21T11:45:12;13.40;99.90
4725;DHT22;2376;53.544;10.226;2023-02-21T11:47:45;13.60;99.90
4725;DHT22;2376;53.544;10.226;2023-02-21T11:50:22;13.80;99.90
4725;DHT22;2376;53.544;10.226;2023-02-21T11:52:54;13.80;99.90
4725;DHT22;2376;53.544;10.226;2023-02-21T11:55:24;13.80;99.90
4725;DHT22;2376;53.544;10.226;2023-02-21T11:58:00;13.60;99.90
4725;DHT22;2376;53.544;10.226;2023-02-21T12:00:39;13.50;99.90
4725;DHT22;2376;53.544;10.226;2023-02-21T12:03:29;13.50;99.90
4725;DHT22;2376;53.544;10.226;2023-02-21T12:06:00;13.70;99.90
4725;DHT22;2376;53.544;10.226;2023-02-21T12:08:38;13.70;99.90
4725;DHT22;2376;53.544;10.226;2023-02-21T12:11:19;13.80;99.90
4725;DHT22;2376;53.544;10.226;2023-02-21T12:13:57;13.90;99.90
4725;DHT22;2376;53.544;10.226;2023-02-21T12:16:35;14.00;99.90
4725;DHT22;2376;53.544;10.226;2023-02-21T12:19:16;14.10;99.90
4725;DHT22;2376;53.544;10.226;2023-02-21T12:22:01;14.10;99.90
4725;DHT22;2376;53.544;10.226;2023-02-21T12:24:55;14.00;99.90
4725;DHT22;2376;53.544;10.226;2023-02-21T12:27:33;14.20;99.90
4725;DHT22;2376;53.544;10.226;2023-02-21T12:30:16;14.20;99.90
4725;DHT22;2376;53.544;10.226;2023-02-21T12:32:49;14.20;99.90
4725;DHT22;2376;53.544;10.226;2023-02-21T12:38:30;14.00;99.90
4725;DHT22;2376;53.544;10.226;2023-02-21T12:41:08;13.90;99.90
4725;DHT22;2376;53.544;10.226;2023-02-21T12:43:49;13.90;99.90
4725;DHT22;2376;53.544;10.226;2023-02-21T12:46:24;13.90;99.90
4725;DHT22;2376;53.544;10.226;2023-02-21T12:48:58;13.70;99.90
4725;DHT22;2376;53.544;10.226;2023-02-21T12:51:30;13.70;99.90
4725;DHT22;2376;53.544;10.226;2023-02-21T12:54:02;13.60;99.90
4725;DHT22;2376;53.544;10.226;2023-02-21T12:56:34;13.60;99.90
4725;DHT22;2376;53.544;10.226;2023-02-21T12:59:05;13.60;99.90
4725;DHT22;2376;53.544;10.226;2023-02-21T13:01:38;13.60;99.90
4725;DHT22;2376;53.544;10.226;2023-02-21T13:04:17;13.70;99.90
4725;DHT22;2376;53.544;10.226;2023-02-21T13:06:49;13.60;99.90
4725;DHT22;2376;53.544;10.226;2023-02-21T13:09:23;13.60;99.90
4725;DHT22;2376;53.544;10.226;2023-02-21T13:11:58;13.60;99.90
4725;DHT22;2376;53.544;10.226;2023-02-21T13:14:30;13.50;99.90
4725;DHT22;2376;53.544;10.226;2023-02-21T13:16:59;13.50;99.90
4725;DHT22;2376;53.544;10.226;2023-02-21T13:19:39;13.50;99.90
4725;DHT22;2376;53.544;10.226;2023-02-21T13:25:04;13.50;99.90
4725;DHT22;2376;53.544;10.226;2023-02-21T13:27:50;13.50;99.90
4725;DHT22;2376;53.544;10.226;2023-02-21T13:30:22;13.50;99.90
4725;DHT22;2376;53.544;10.226;2023-02-21T13:32:54;13.50;99.90
4725;DHT22;2376;53.544;10.226;2023-02-21T13:35:27;13.50;99.90
4725;DHT22;2376;53.544;10.226;2023-02-21T13:37:56;13.50;99.90
4725;DHT22;2376;53.544;10.226;2023-02-21T13:40:30;13.50;99.90
4725;DHT22;2376;53.544;10.226;2023-02-21T13:43:00;13.40;99.90
4725;DHT22;2376;53.544;10.226;2023-02-21T13:45:29;13.50;99.90
4725;DHT22;2376;53.544;10.226;2023-02-21T13:48:22;13.40;99.90
4725;DHT22;2376;53.544;10.226;2023-02-21T13:50:51;13.30;99.90
4725;DHT22;2376;53.544;10.226;2023-02-21T13:53:19;13.30;99.90
4725;DHT22;2376;53.544;10.226;2023-02-21T13:56:13;13.30;99.90
4725;DHT22;2376;53.544;10.226;2023-02-21T13:58:44;13.40;99.90
4725;DHT22;2376;53.544;10.226;2023-02-21T14:04:49;13.60;99.90
4725;DHT22;2376;53.544;10.226;2023-02-21T14:07:43;13.50;99.90
4725;DHT22;2376;53.544;10.226;2023-02-21T14:10:31;13.60;99.90
4725;DHT22;2376;53.544;10.226;2023-02-21T14:13:02;13.50;99.90
4725;DHT22;2376;53.544;10.226;2023-02-21T14:15:55;13.40;99.90
4725;DHT22;2376;53.544;10.226;2023-02-21T14:18:26;13.40;99.90
4725;DHT22;2376;53.544;10.226;2023-02-21T14:20:56;13.20;99.90
4725;DHT22;2376;53.544;10.226;2023-02-21T14:23:32;13.20;99.90
4725;DHT22;2376;53.544;10.226;2023-02-21T14:26:04;13.30;99.90
4725;DHT22;2376;53.544;10.226;2023-02-21T14:29:02;13.50;99.90
4725;DHT22;2376;53.544;10.226;2023-02-21T14:34:31;13.40;99.90
4725;DHT22;2376;53.544;10.226;2023-02-21T14:37:04;13.30;99.90
4725;DHT22;2376;53.544;10.226;2023-02-21T14:39:38;13.40;99.90
4725;DHT22;2376;53.544;10.226;2023-02-21T14:42:24;13.30;99.90
4725;DHT22;2376;53.544;10.226;2023-02-21T14:45:25;13.20;99.90
4725;DHT22;2376;53.544;10.226;2023-02-21T14:48:17;13.30;99.90
4725;DHT22;2376;53.544;10.226;2023-02-21T14:51:04;13.40;99.90
4725;DHT22;2376;53.544;10.226;2023-02-21T14:53:46;13.40;99.90
4725;DHT22;2376;53.544;10.226;2023-02-21T14:56:35;13.40;99.90
4725;DHT22;2376;53.544;10.226;2023-02-21T15:02:12;13.20;99.90
4725;DHT22;2376;53.544;10.226;2023-02-21T15:04:44;13.20;99.90
4725;DHT22;2376;53.544;10.226;2023-02-21T15:07:16;13.30;99.90
4725;DHT22;2376;53.544;10.226;2023-02-21T15:10:09;13.20;99.90
4725;DHT22;2376;53.544;10.226;2023-02-21T15:12:43;13.20;99.90
4725;DHT22;2376;53.544;10.226;2023-02-21T15:15:18;13.20;99.90
4725;DHT22;2376;53.544;10.226;2023-02-21T15:18:03;13.20;99.90
4725;DHT22;2376;53.544;10.226;2023-02-21T15:20:32;13.30;99.90
4725;DHT22;2376;53.544;10.226;2023-02-21T15:23:01;13.20;99.90
4725;DHT22;2376;53.544;10.226;2023-02-21T15:25:32;13.20;99.90
4725;DHT22;2376;53.544;10.226;2023-02-21T15:28:05;13.20;99.90
4725;DHT22;2376;53.544;10.226;2023-02-21T15:30:39;13.10;99.90
4725;DHT22;2376;53.544;10.226;2023-02-21T15:33:12;13.10;99.90
4725;DHT22;2376;53.544;10.226;2023-02-21T15:35:42;13.10;99.90
4725;DHT22;2376;53.544;10.226;2023-02-21T15:38:14;13.10;99.90
4725;DHT22;2376;53.544;10.226;2023-02-21T15:40:45;13.00;99.90
4725;DHT22;2376;53.544;10.226;2023-02-21T15:43:23;12.90;99.90
4725;DHT22;2376;53.544;10.226;2023-02-21T15:45:51;12.80;99.90
4725;DHT22;2376;53.544;10.226;2023-02-21T15:48:18;12.90;99.90
4725;DHT22;2376;53.544;10.226;2023-02-21T15:50:45;12.80;99.90
4725;DHT22;2376;53.544;10.226;2023-02-21T15:53:15;12.80;99.90
4725;DHT22;2376;53.544;10.226;2023-02-21T15:55:45;12.80;99.90
4725;DHT22;2376;53.544;10.226;2023-02-21T15:58:16;12.70;99.90
4725;DHT22;2376;53.544;10.226;2023-02-21T16:00:44;12.70;99.90
4725;DHT22;2376;53.544;10.226;2023-02-21T16:03:30;12.70;99.90
4725;DHT22;2376;53.544;10.226;2023-02-21T16:06:17;12.60;99.90
4725;DHT22;2376;53.544;10.226;2023-02-21T16:08:54;12.70;99.90
4725;DHT22;2376;53.544;10.226;2023-02-21T16:11:36;12.60;99.90
4725;DHT22;2376;53.544;10.226;2023-02-21T16:14:04;12.70;99.90
4725;DHT22;2376;53.544;10.226;2023-02-21T16:16:32;12.60;99.90
4725;DHT22;2376;53.544;10.226;2023-02-21T16:18:59;12.50;99.90
4725;DHT22;2376;53.544;10.226;2023-02-21T16:21:28;12.40;99.90
4725;DHT22;2376;53.544;10.226;2023-02-21T16:23:55;12.40;99.90
4725;DHT22;2376;53.544;10.226;2023-02-21T16:26:24;12.40;99.90
4725;DHT22;2376;53.544;10.226;2023-02-21T16:28:54;12.50;99.90
4725;DHT22;2376;53.544;10.226;2023-02-21T16:31:26;12.40;99.90
4725;DHT22;2376;53.544;10.226;2023-02-21T16:33:52;12.40;99.90
4725;DHT22;2376;53.544;10.226;2023-02-21T16:36:23;12.50;99.90
4725;DHT22;2376;53.544;10.226;2023-02-21T16:38:52;12.50;99.90
4725;DHT22;2376;53.544;10.226;2023-02-21T16:41:18;12.50;99.90
4725;DHT22;2376;53.544;10.226;2023-02-21T16:43:45;12.50;99.90